sensor_id;sensor_type;location;lat;lon;timestamp;pressure;altitude;pressure_sealevel;temperature
58909;BMP280;44690;48.154;17.102;2023-02-28T00:00:13;100508.69;;;1.13
58909;BMP280;44690;48.154;17.102;2023-02-28T00:02:02;100519.19;;;1.17
58909;BMP280;44690;48.154;17.102;2023-02-28T00:04:29;100519.19;;;1.17
58909;BMP280;44690;48.154;17.102;2023-02-28T00:06:48;100520.09;;;1.14
58909;BMP280;44690;48.154;17.102;2023-02-28T00:09:19;100523.50;;;1.14
58909;BMP280;44690;48.154;17.102;2023-02-28T00:11:32;100526.19;;;1.14
58909;BMP280;44690;48.154;17.102;2023-02-28T00:15:20;100531.81;;;1.16
58909;BMP280;44690;48.154;17.102;2023-02-28T00:17:11;100532.09;;;1.18
58909;BMP280;44690;48.154;17.102;2023-02-28T00:18:54;100524.97;;;1.15
58909;BMP280;44690;48.154;17.102;2023-02-28T00:20:30;100532.75;;;1.13
58909;BMP280;44690;48.154;17.102;2023-02-28T00:22:48;100531.28;;;1.12
58909;BMP280;44690;48.154;17.102;2023-02-28T00:24:56;100539.00;;;1.10
58909;BMP280;44690;48.154;17.102;2023-02-28T00:27:00;100543.16;;;1.11
58909;BMP280;44690;48.154;17.102;2023-02-28T00:28:39;100537.28;;;1.07
58909;BMP280;44690;48.154;17.102;2023-02-28T00:31:06;100545.56;;;1.09
58909;BMP280;44690;48.154;17.102;2023-02-28T00:33:37;100548.22;;;1.09
58909;BMP280;44690;48.154;17.102;2023-02-28T00:36:10;100547.41;;;1.03
58909;BMP280;44690;48.154;17.102;2023-02-28T00:41:05;100557.63;;;1.05
58909;BMP280;44690;48.154;17.102;2023-02-28T00:42:38;100554.22;;;1.04
58909;BMP280;44690;48.154;17.102;2023-02-28T00:44:11;100552.28;;;1.05
58909;BMP280;44690;48.154;17.102;2023-02-28T00:45:59;100551.25;;;1.02
58909;BMP280;44690;48.154;17.102;2023-02-28T00:47:55;100558.38;;;1.05
58909;BMP280;44690;48.154;17.102;2023-02-28T00:50:09;100560.31;;;1.05
58909;BMP280;44690;48.154;17.102;2023-02-28T00:52:38;100553.66;;;1.00
58909;BMP280;44690;48.154;17.102;2023-02-28T00:55:01;100560.50;;;1.01
58909;BMP280;44690;48.154;17.102;2023-02-28T00:56:50;100561.69;;;1.00
58909;BMP280;44690;48.154;17.102;2023-02-28T00:58:23;100569.41;;;0.98
58909;BMP280;44690;48.154;17.102;2023-02-28T01:00:03;100560.84;;;0.94
58909;BMP280;44690;48.154;17.102;2023-02-28T01:01:57;100564.72;;;0.93
58909;BMP280;44690;48.154;17.102;2023-02-28T01:03:55;100567.31;;;0.87
58909;BMP280;44690;48.154;17.102;2023-02-28T01:05:59;100577.09;;;0.90
58909;BMP280;44690;48.154;17.102;2023-02-28T01:08:12;100575.31;;;0.87
58909;BMP280;44690;48.154;17.102;2023-02-28T01:10:23;100566.28;;;0.85
58909;BMP280;44690;48.154;17.102;2023-02-28T01:12:03;100564.00;;;0.78
58909;BMP280;44690;48.154;17.102;2023-02-28T01:13:43;100570.50;;;0.76
58909;BMP280;44690;48.154;17.102;2023-02-28T01:15:16;100559.56;;;0.74
58909;BMP280;44690;48.154;17.102;2023-02-28T01:16:50;100567.09;;;0.76
58909;BMP280;44690;48.154;17.102;2023-02-28T01:19:02;100567.00;;;0.70
58909;BMP280;44690;48.154;17.102;2023-02-28T01:21:26;100565.72;;;0.66
58909;BMP280;44690;48.154;17.102;2023-02-28T01:23:41;100571.06;;;0.66
58909;BMP280;44690;48.154;17.102;2023-02-28T01:25:52;100570.31;;;0.65
58909;BMP280;44690;48.154;17.102;2023-02-28T01:28:27;100563.97;;;0.63
58909;BMP280;44690;48.154;17.102;2023-02-28T01:30:30;100570.50;;;0.62
58909;BMP280;44690;48.154;17.102;2023-02-28T01:32:25;100572.44;;;0.61
58909;BMP280;44690;48.154;17.102;2023-02-28T01:34:26;100561.53;;;0.50
58909;BMP280;44690;48.154;17.102;2023-02-28T01:36:29;100566.25;;;0.55
58909;BMP280;44690;48.154;17.102;2023-02-28T01:38:07;100568.34;;;0.51
58909;BMP280;44690;48.154;17.102;2023-02-28T01:40:23;100579.97;;;0.48
58909;BMP280;44690;48.154;17.102;2023-02-28T01:41:56;100560.97;;;0.46
58909;BMP280;44690;48.154;17.102;2023-02-28T01:46:21;100572.38;;;0.46
58909;BMP280;44690;48.154;17.102;2023-02-28T01:48:14;100572.84;;;0.45
58909;BMP280;44690;48.154;17.102;2023-02-28T01:49:47;100570.19;;;0.45
58909;BMP280;44690;48.154;17.102;2023-02-28T01:51:25;100574.06;;;0.44
58909;BMP280;44690;48.154;17.102;2023-02-28T01:53:10;100570.09;;;0.39
58909;BMP280;44690;48.154;17.102;2023-02-28T01:54:59;100575.88;;;0.38
58909;BMP280;44690;48.154;17.102;2023-02-28T01:56:36;100564.94;;;0.36
58909;BMP280;44690;48.154;17.102;2023-02-28T01:58:28;100573.75;;;0.42
58909;BMP280;44690;48.154;17.102;2023-02-28T02:00:46;100574.22;;;0.40
58909;BMP280;44690;48.154;17.102;2023-02-28T02:02:27;100571.56;;;0.40
58909;BMP280;44690;48.154;17.102;2023-02-28T02:04:03;100563.44;;;0.35
58909;BMP280;44690;48.154;17.102;2023-02-28T02:06:22;100568.16;;;0.40
58909;BMP280;44690;48.154;17.102;2023-02-28T02:08:23;100567.84;;;0.38
58909;BMP280;44690;48.154;17.102;2023-02-28T02:10:27;100579.09;;;0.42
58909;BMP280;44690;48.154;17.102;2023-02-28T02:12:33;100578.09;;;0.39
58909;BMP280;44690;48.154;17.102;2023-02-28T02:15:42;100583.88;;;0.38
58909;BMP280;44690;48.154;17.102;2023-02-28T02:32:25;100579.66;;;0.07
58909;BMP280;44690;48.154;17.102;2023-02-28T02:36:17;100580.06;;;-0.09
58909;BMP280;44690;48.154;17.102;2023-02-28T02:40:17;100586.63;;;-0.19
58909;BMP280;44690;48.154;17.102;2023-02-28T02:42:16;100584.75;;;-0.28
58909;BMP280;44690;48.154;17.102;2023-02-28T02:44:36;100581.38;;;-0.38
58909;BMP280;44690;48.154;17.102;2023-02-28T02:46:51;100584.06;;;-0.47
58909;BMP280;44690;48.154;17.102;2023-02-28T02:48:48;100587.22;;;-0.58
58909;BMP280;44690;48.154;17.102;2023-02-28T02:51:03;100582.91;;;-0.64
58909;BMP280;44690;48.154;17.102;2023-02-28T02:53:30;100577.63;;;-0.73
58909;BMP280;44690;48.154;17.102;2023-02-28T02:56:06;100580.75;;;-0.75
58909;BMP280;44690;48.154;17.102;2023-02-28T02:58:09;100583.13;;;-0.77
58909;BMP280;44690;48.154;17.102;2023-02-28T02:59:59;100582.81;;;-0.79
58909;BMP280;44690;48.154;17.102;2023-02-28T03:01:44;100582.97;;;-0.83
58909;BMP280;44690;48.154;17.102;2023-02-28T03:04:19;100582.69;;;-0.85
58909;BMP280;44690;48.154;17.102;2023-02-28T03:06:27;100579.44;;;-0.89
58909;BMP280;44690;48.154;17.102;2023-02-28T03:08:03;100588.63;;;-0.90
58909;BMP280;44690;48.154;17.102;2023-02-28T03:09:37;100579.16;;;-0.91
58909;BMP280;44690;48.154;17.102;2023-02-28T03:11:25;100579.59;;;-0.92
58909;BMP280;44690;48.154;17.102;2023-02-28T03:18:41;100584.06;;;-0.98
58909;BMP280;44690;48.154;17.102;2023-02-28T03:21:40;100581.09;;;-1.01
58909;BMP280;44690;48.154;17.102;2023-02-28T03:26:24;100583.16;;;-0.95
58909;BMP280;44690;48.154;17.102;2023-02-28T03:28:45;100573.22;;;-0.95
58909;BMP280;44690;48.154;17.102;2023-02-28T03:30:49;100585.81;;;-0.95
58909;BMP280;44690;48.154;17.102;2023-02-28T03:35:36;100589.53;;;-0.93
58909;BMP280;44690;48.154;17.102;2023-02-28T03:40:25;100593.97;;;-0.90
58909;BMP280;44690;48.154;17.102;2023-02-28T03:42:36;100591.59;;;-0.88
58909;BMP280;44690;48.154;17.102;2023-02-28T03:45:05;100596.03;;;-0.85
58909;BMP280;44690;48.154;17.102;2023-02-28T03:49:27;100591.44;;;-0.84
58909;BMP280;44690;48.154;17.102;2023-02-28T03:51:01;100589.06;;;-0.91
58909;BMP280;44690;48.154;17.102;2023-02-28T03:52:57;100601.19;;;-0.90
58909;BMP280;44690;48.154;17.102;2023-02-28T04:00:10;100598.41;;;-1.05
58909;BMP280;44690;48.154;17.102;2023-02-28T04:02:11;100591.19;;;-1.14
58909;BMP280;44690;48.154;17.102;2023-02-28T04:05:02;100599.59;;;-1.25
58909;BMP280;44690;48.154;17.102;2023-02-28T04:06:44;100593.69;;;-1.29
58909;BMP280;44690;48.154;17.102;2023-02-28T04:08:42;100597.69;;;-1.33
58909;BMP280;44690;48.154;17.102;2023-02-28T04:10:16;100597.22;;;-1.41
58909;BMP280;44690;48.154;17.102;2023-02-28T04:12:39;100590.00;;;-1.50
58909;BMP280;44690;48.154;17.102;2023-02-28T04:14:46;100598.53;;;-1.55
58909;BMP280;44690;48.154;17.102;2023-02-28T04:16:19;100604.03;;;-1.58
58909;BMP280;44690;48.154;17.102;2023-02-28T04:18:38;100608.31;;;-1.61
58909;BMP280;44690;48.154;17.102;2023-02-28T04:20:16;100600.91;;;-1.66
58909;BMP280;44690;48.154;17.102;2023-02-28T04:21:59;100600.91;;;-1.66
58909;BMP280;44690;48.154;17.102;2023-02-28T04:23:31;100597.94;;;-1.68
58909;BMP280;44690;48.154;17.102;2023-02-28T04:25:16;100600.91;;;-1.75
58909;BMP280;44690;48.154;17.102;2023-02-28T04:29:58;100601.88;;;-1.91
58909;BMP280;44690;48.154;17.102;2023-02-28T04:32:18;100605.41;;;-1.94
58909;BMP280;44690;48.154;17.102;2023-02-28T04:34:35;100602.75;;;-1.94
58909;BMP280;44690;48.154;17.102;2023-02-28T04:36:41;100607.94;;;-1.90
58909;BMP280;44690;48.154;17.102;2023-02-28T04:38:24;100611.31;;;-1.90
58909;BMP280;44690;48.154;17.102;2023-02-28T04:40:01;100614.31;;;-1.88
58909;BMP280;44690;48.154;17.102;2023-02-28T04:42:00;100617.50;;;-1.93
58909;BMP280;44690;48.154;17.102;2023-02-28T04:44:20;100617.81;;;-2.00
58909;BMP280;44690;48.154;17.102;2023-02-28T04:46:19;100619.00;;;-2.01
58909;BMP280;44690;48.154;17.102;2023-02-28T04:47:56;100613.34;;;-2.03
58909;BMP280;44690;48.154;17.102;2023-02-28T04:50:19;100615.72;;;-2.05
58909;BMP280;44690;48.154;17.102;2023-02-28T04:52:39;100613.50;;;-2.07
58909;BMP280;44690;48.154;17.102;2023-02-28T04:55:18;100622.22;;;-2.06
58909;BMP280;44690;48.154;17.102;2023-02-28T04:57:31;100614.09;;;-2.03
58909;BMP280;44690;48.154;17.102;2023-02-28T04:59:38;100610.53;;;-2.09
58909;BMP280;44690;48.154;17.102;2023-02-28T05:02:37;100618.06;;;-2.07
58909;BMP280;44690;48.154;17.102;2023-02-28T05:04:34;100610.53;;;-2.09
58909;BMP280;44690;48.154;17.102;2023-02-28T05:06:12;100609.81;;;-2.09
58909;BMP280;44690;48.154;17.102;2023-02-28T05:07:57;100604.78;;;-2.07
58909;BMP280;44690;48.154;17.102;2023-02-28T05:09:57;100615.28;;;-2.04
58909;BMP280;44690;48.154;17.102;2023-02-28T05:11:53;100620.75;;;-1.98
58909;BMP280;44690;48.154;17.102;2023-02-28T05:14:14;100614.28;;;-1.97
58909;BMP280;44690;48.154;17.102;2023-02-28T05:16:13;100616.94;;;-1.97
58909;BMP280;44690;48.154;17.102;2023-02-28T05:18:20;100625.06;;;-1.91
58909;BMP280;44690;48.154;17.102;2023-02-28T05:20:10;100628.38;;;-1.87
58909;BMP280;44690;48.154;17.102;2023-02-28T05:21:52;100617.59;;;-1.84
58909;BMP280;44690;48.154;17.102;2023-02-28T05:23:40;100618.19;;;-1.80
58909;BMP280;44690;48.154;17.102;2023-02-28T05:25:27;100623.53;;;-1.70
58909;BMP280;44690;48.154;17.102;2023-02-28T05:29:50;100630.34;;;-1.51
58909;BMP280;44690;48.154;17.102;2023-02-28T05:32:04;100624.41;;;-1.46
58909;BMP280;44690;48.154;17.102;2023-02-28T05:34:09;100632.28;;;-1.42
58909;BMP280;44690;48.154;17.102;2023-02-28T05:36:18;100629.78;;;-1.37
58909;BMP280;44690;48.154;17.102;2023-02-28T05:37:57;100634.41;;;-1.28
58909;BMP280;44690;48.154;17.102;2023-02-28T05:40:09;100627.75;;;-1.23
58909;BMP280;44690;48.154;17.102;2023-02-28T05:42:29;100636.47;;;-1.14
58909;BMP280;44690;48.154;17.102;2023-02-28T05:44:07;100638.97;;;-1.10
58909;BMP280;44690;48.154;17.102;2023-02-28T05:46:11;100640.00;;;-0.98
58909;BMP280;44690;48.154;17.102;2023-02-28T05:47:59;100642.22;;;-0.97
58909;BMP280;44690;48.154;17.102;2023-02-28T05:49:31;100648.28;;;-0.87
58909;BMP280;44690;48.154;17.102;2023-02-28T05:51:10;100651.06;;;-0.82
58909;BMP280;44690;48.154;17.102;2023-02-28T05:53:33;100647.81;;;-0.77
58909;BMP280;44690;48.154;17.102;2023-02-28T05:55:51;100656.84;;;-0.74
58909;BMP280;44690;48.154;17.102;2023-02-28T05:57:39;100657.00;;;-0.68
58909;BMP280;44690;48.154;17.102;2023-02-28T05:59:43;100662.44;;;-0.63
58909;BMP280;44690;48.154;17.102;2023-02-28T06:01:44;100662.56;;;-0.57
58909;BMP280;44690;48.154;17.102;2023-02-28T06:03:37;100658.72;;;-0.56
58909;BMP280;44690;48.154;17.102;2023-02-28T06:05:41;100668.81;;;-0.51
58909;BMP280;44690;48.154;17.102;2023-02-28T06:07:42;100662.88;;;-0.46
58909;BMP280;44690;48.154;17.102;2023-02-28T06:09:52;100667.59;;;-0.41
58909;BMP280;44690;48.154;17.102;2023-02-28T06:11:27;100668.16;;;-0.37
58909;BMP280;44690;48.154;17.102;2023-02-28T06:14:01;100664.19;;;-0.32
58909;BMP280;44690;48.154;17.102;2023-02-28T06:16:16;100664.59;;;-0.24
58909;BMP280;44690;48.154;17.102;2023-02-28T06:20:56;100669.00;;;-0.12
58909;BMP280;44690;48.154;17.102;2023-02-28T06:22:45;100661.13;;;-0.07
58909;BMP280;44690;48.154;17.102;2023-02-28T06:25:05;100669.09;;;0.03
58909;BMP280;44690;48.154;17.102;2023-02-28T06:27:24;100662.50;;;0.13
58909;BMP280;44690;48.154;17.102;2023-02-28T06:29:17;100671.22;;;0.22
58909;BMP280;44690;48.154;17.102;2023-02-28T06:31:07;100669.13;;;0.27
58909;BMP280;44690;48.154;17.102;2023-02-28T06:32:57;100671.16;;;0.32
58909;BMP280;44690;48.154;17.102;2023-02-28T06:35:13;100674.50;;;0.41
58909;BMP280;44690;48.154;17.102;2023-02-28T06:37:22;100673.84;;;0.46
58909;BMP280;44690;48.154;17.102;2023-02-28T06:39:02;100675.34;;;0.47
58909;BMP280;44690;48.154;17.102;2023-02-28T06:41:27;100673.69;;;0.50
58909;BMP280;44690;48.154;17.102;2023-02-28T06:43:42;100679.69;;;0.60
58909;BMP280;44690;48.154;17.102;2023-02-28T06:45:19;100684.16;;;0.63
58909;BMP280;44690;48.154;17.102;2023-02-28T06:47:33;100683.97;;;0.66
58909;BMP280;44690;48.154;17.102;2023-02-28T06:49:46;100680.03;;;0.76
58909;BMP280;44690;48.154;17.102;2023-02-28T06:52:33;100683.25;;;1.05
58909;BMP280;44690;48.154;17.102;2023-02-28T06:54:32;100685.47;;;1.36
58909;BMP280;44690;48.154;17.102;2023-02-28T06:56:06;100684.50;;;1.83
58909;BMP280;44690;48.154;17.102;2023-02-28T06:57:47;100685.31;;;2.45
58909;BMP280;44690;48.154;17.102;2023-02-28T06:59:25;100680.00;;;2.91
58909;BMP280;44690;48.154;17.102;2023-02-28T07:01:38;100683.50;;;3.66
58909;BMP280;44690;48.154;17.102;2023-02-28T07:03:16;100689.91;;;4.17
58909;BMP280;44690;48.154;17.102;2023-02-28T07:05:31;100693.72;;;4.64
58909;BMP280;44690;48.154;17.102;2023-02-28T07:08:17;100697.44;;;5.01
58909;BMP280;44690;48.154;17.102;2023-02-28T07:10:18;100688.66;;;5.06
58909;BMP280;44690;48.154;17.102;2023-02-28T07:12:33;100686.44;;;5.15
58909;BMP280;44690;48.154;17.102;2023-02-28T07:15:15;100687.94;;;5.44
58909;BMP280;44690;48.154;17.102;2023-02-28T07:18:13;100699.59;;;5.86
58909;BMP280;44690;48.154;17.102;2023-02-28T07:19:46;100697.38;;;5.79
58909;BMP280;44690;48.154;17.102;2023-02-28T07:21:29;100695.91;;;5.78
58909;BMP280;44690;48.154;17.102;2023-02-28T07:23:22;100699.84;;;5.83
58909;BMP280;44690;48.154;17.102;2023-02-28T07:26:06;100695.72;;;5.65
58909;BMP280;44690;48.154;17.102;2023-02-28T07:33:41;100708.63;;;5.78
58909;BMP280;44690;48.154;17.102;2023-02-28T07:35:26;100707.94;;;5.66
58909;BMP280;44690;48.154;17.102;2023-02-28T07:38:03;100707.97;;;5.21
58909;BMP280;44690;48.154;17.102;2023-02-28T07:40:10;100702.56;;;4.82
58909;BMP280;44690;48.154;17.102;2023-02-28T07:42:29;100715.75;;;4.80
58909;BMP280;44690;48.154;17.102;2023-02-28T07:44:19;100700.09;;;4.67
58909;BMP280;44690;48.154;17.102;2023-02-28T07:51:51;100711.59;;;4.96
58909;BMP280;44690;48.154;17.102;2023-02-28T07:53:45;100728.75;;;4.93
58909;BMP280;44690;48.154;17.102;2023-02-28T07:55:23;100718.47;;;5.02
58909;BMP280;44690;48.154;17.102;2023-02-28T07:57:07;100721.19;;;5.08
58909;BMP280;44690;48.154;17.102;2023-02-28T07:58:39;100715.78;;;4.97
58909;BMP280;44690;48.154;17.102;2023-02-28T08:00:24;100718.69;;;4.82
58909;BMP280;44690;48.154;17.102;2023-02-28T08:04:42;100714.31;;;4.90
58909;BMP280;44690;48.154;17.102;2023-02-28T08:07:19;100715.75;;;4.80
58909;BMP280;44690;48.154;17.102;2023-02-28T08:09:28;100713.75;;;4.58
58909;BMP280;44690;48.154;17.102;2023-02-28T08:11:47;100721.03;;;4.46
58909;BMP280;44690;48.154;17.102;2023-02-28T08:13:40;100715.63;;;4.35
58909;BMP280;44690;48.154;17.102;2023-02-28T08:15:31;100712.44;;;4.36
58909;BMP280;44690;48.154;17.102;2023-02-28T08:17:36;100721.56;;;4.50
58909;BMP280;44690;48.154;17.102;2023-02-28T08:19:16;100719.38;;;4.54
58909;BMP280;44690;48.154;17.102;2023-02-28T08:21:24;100720.59;;;4.64
58909;BMP280;44690;48.154;17.102;2023-02-28T08:23:37;100729.91;;;4.75
58909;BMP280;44690;48.154;17.102;2023-02-28T08:25:42;100721.13;;;4.74
58909;BMP280;44690;48.154;17.102;2023-02-28T08:27:26;100721.81;;;4.63
58909;BMP280;44690;48.154;17.102;2023-02-28T08:29:51;100736.00;;;4.64
58909;BMP280;44690;48.154;17.102;2023-02-28T08:32:42;100726.16;;;4.38
58909;BMP280;44690;48.154;17.102;2023-02-28T08:34:38;100733.22;;;4.42
58909;BMP280;44690;48.154;17.102;2023-02-28T08:36:58;100726.38;;;4.41
58909;BMP280;44690;48.154;17.102;2023-02-28T08:38:59;100731.44;;;4.27
58909;BMP280;44690;48.154;17.102;2023-02-28T08:41:03;100724.06;;;4.11
58909;BMP280;44690;48.154;17.102;2023-02-28T08:42:59;100731.56;;;4.01
58909;BMP280;44690;48.154;17.102;2023-02-28T08:45:02;100726.16;;;3.90
58909;BMP280;44690;48.154;17.102;2023-02-28T08:46:53;100740.09;;;3.94
58909;BMP280;44690;48.154;17.102;2023-02-28T08:49:14;100730.25;;;3.85
58909;BMP280;44690;48.154;17.102;2023-02-28T08:51:42;100738.31;;;3.85
58909;BMP280;44690;48.154;17.102;2023-02-28T08:53:59;100732.63;;;3.78
58909;BMP280;44690;48.154;17.102;2023-02-28T08:56:27;100738.00;;;3.78
58909;BMP280;44690;48.154;17.102;2023-02-28T08:58:39;100735.34;;;3.83
58909;BMP280;44690;48.154;17.102;2023-02-28T09:01:55;100733.22;;;3.93
58909;BMP280;44690;48.154;17.102;2023-02-28T09:03:34;100740.03;;;3.89
58909;BMP280;44690;48.154;17.102;2023-02-28T09:05:59;100736.91;;;3.96
58909;BMP280;44690;48.154;17.102;2023-02-28T09:07:40;100741.84;;;4.03
58909;BMP280;44690;48.154;17.102;2023-02-28T09:10:11;100740.75;;;4.32
58909;BMP280;44690;48.154;17.102;2023-02-28T09:12:15;100744.06;;;4.64
58909;BMP280;44690;48.154;17.102;2023-02-28T09:14:25;100742.16;;;4.87
58909;BMP280;44690;48.154;17.102;2023-02-28T09:16:48;100745.63;;;5.21
58909;BMP280;44690;48.154;17.102;2023-02-28T09:19:39;100747.13;;;5.56
58909;BMP280;44690;48.154;17.102;2023-02-28T09:24:00;100748.72;;;6.09
58909;BMP280;44690;48.154;17.102;2023-02-28T09:26:25;100745.72;;;6.24
58909;BMP280;44690;48.154;17.102;2023-02-28T09:28:55;100752.97;;;6.51
58909;BMP280;44690;48.154;17.102;2023-02-28T09:31:25;100747.75;;;6.65
58909;BMP280;44690;48.154;17.102;2023-02-28T09:33:24;100748.31;;;6.52
58909;BMP280;44690;48.154;17.102;2023-02-28T09:36:16;100742.25;;;6.40
58909;BMP280;44690;48.154;17.102;2023-02-28T09:38:29;100744.91;;;6.51
58909;BMP280;44690;48.154;17.102;2023-02-28T09:41:21;100758.22;;;6.33
58909;BMP280;44690;48.154;17.102;2023-02-28T09:43:15;100729.81;;;6.26
58909;BMP280;44690;48.154;17.102;2023-02-28T09:45:40;100734.66;;;6.39
58909;BMP280;44690;48.154;17.102;2023-02-28T09:47:39;100745.00;;;6.29
58909;BMP280;44690;48.154;17.102;2023-02-28T09:49:45;100745.78;;;6.18
58909;BMP280;44690;48.154;17.102;2023-02-28T09:52:12;100748.00;;;6.09
58909;BMP280;44690;48.154;17.102;2023-02-28T09:54:37;100747.78;;;6.01
58909;BMP280;44690;48.154;17.102;2023-02-28T09:56:44;100746.81;;;6.04
58909;BMP280;44690;48.154;17.102;2023-02-28T10:04:16;100741.19;;;6.60
58909;BMP280;44690;48.154;17.102;2023-02-28T10:06:28;100750.22;;;6.68
58909;BMP280;44690;48.154;17.102;2023-02-28T10:08:38;100749.03;;;6.58
58909;BMP280;44690;48.154;17.102;2023-02-28T10:11:20;100753.56;;;6.33
58909;BMP280;44690;48.154;17.102;2023-02-28T10:14:28;100750.66;;;6.25
58909;BMP280;44690;48.154;17.102;2023-02-28T10:18:50;100746.84;;;6.57
58909;BMP280;44690;48.154;17.102;2023-02-28T10:23:40;100747.34;;;6.49
58909;BMP280;44690;48.154;17.102;2023-02-28T10:26:24;100736.38;;;6.36
58909;BMP280;44690;48.154;17.102;2023-02-28T10:28:27;100736.16;;;6.34
58909;BMP280;44690;48.154;17.102;2023-02-28T10:31:19;100736.13;;;6.40
58909;BMP280;44690;48.154;17.102;2023-02-28T10:33:31;100737.06;;;6.48
58909;BMP280;44690;48.154;17.102;2023-02-28T10:35:26;100726.81;;;6.46
58909;BMP280;44690;48.154;17.102;2023-02-28T10:37:33;100739.94;;;6.61
58909;BMP280;44690;48.154;17.102;2023-02-28T10:40:39;100734.09;;;6.51
58909;BMP280;44690;48.154;17.102;2023-02-28T10:42:41;100720.16;;;6.42
58909;BMP280;44690;48.154;17.102;2023-02-28T10:44:45;100731.72;;;6.42
58909;BMP280;44690;48.154;17.102;2023-02-28T10:46:56;100720.69;;;6.40
58909;BMP280;44690;48.154;17.102;2023-02-28T10:48:48;100728.78;;;6.35
58909;BMP280;44690;48.154;17.102;2023-02-28T10:51:18;100728.13;;;6.12
58909;BMP280;44690;48.154;17.102;2023-02-28T10:53:51;100725.47;;;6.06
58909;BMP280;44690;48.154;17.102;2023-02-28T10:58:20;100718.72;;;5.66
58909;BMP280;44690;48.154;17.102;2023-02-28T11:00:25;100720.19;;;5.56
58909;BMP280;44690;48.154;17.102;2023-02-28T11:02:58;100713.84;;;5.59
58909;BMP280;44690;48.154;17.102;2023-02-28T11:05:35;100717.75;;;5.52
58909;BMP280;44690;48.154;17.102;2023-02-28T11:07:35;100713.81;;;5.48
58909;BMP280;44690;48.154;17.102;2023-02-28T11:10:05;100716.50;;;5.48
58909;BMP280;44690;48.154;17.102;2023-02-28T11:12:58;100711.38;;;5.50
58909;BMP280;44690;48.154;17.102;2023-02-28T11:14:40;100702.56;;;5.49
58909;BMP280;44690;48.154;17.102;2023-02-28T11:17:13;100703.81;;;5.48
58909;BMP280;44690;48.154;17.102;2023-02-28T11:19:44;100709.19;;;5.59
58909;BMP280;44690;48.154;17.102;2023-02-28T11:22:01;100704.03;;;5.56
58909;BMP280;44690;48.154;17.102;2023-02-28T11:24:37;100694.72;;;5.62
58909;BMP280;44690;48.154;17.102;2023-02-28T11:26:53;100688.84;;;5.69
58909;BMP280;44690;48.154;17.102;2023-02-28T11:29:22;100696.38;;;5.77
58909;BMP280;44690;48.154;17.102;2023-02-28T11:31:21;100689.59;;;5.70
58909;BMP280;44690;48.154;17.102;2023-02-28T11:35:38;100693.75;;;5.60
58909;BMP280;44690;48.154;17.102;2023-02-28T11:37:29;100683.50;;;5.53
58909;BMP280;44690;48.154;17.102;2023-02-28T11:40:27;100691.81;;;5.49
58909;BMP280;44690;48.154;17.102;2023-02-28T11:44:23;100685.69;;;5.49
58909;BMP280;44690;48.154;17.102;2023-02-28T11:46:24;100676.16;;;5.53
58909;BMP280;44690;48.154;17.102;2023-02-28T11:56:06;100674.63;;;5.69
58909;BMP280;44690;48.154;17.102;2023-02-28T12:05:29;100662.91;;;5.61
58909;BMP280;44690;48.154;17.102;2023-02-28T12:07:22;100658.25;;;5.56
58909;BMP280;44690;48.154;17.102;2023-02-28T12:09:19;100653.09;;;5.63
58909;BMP280;44690;48.154;17.102;2023-02-28T12:13:28;100651.41;;;5.60
58909;BMP280;44690;48.154;17.102;2023-02-28T12:15:32;100649.94;;;5.59
58909;BMP280;44690;48.154;17.102;2023-02-28T12:27:25;100626.22;;;5.52
58909;BMP280;44690;48.154;17.102;2023-02-28T12:29:20;100633.06;;;5.59
58909;BMP280;44690;48.154;17.102;2023-02-28T12:31:31;100631.34;;;5.56
58909;BMP280;44690;48.154;17.102;2023-02-28T12:33:52;100635.28;;;5.49
58909;BMP280;44690;48.154;17.102;2023-02-28T12:36:11;100632.09;;;5.51
58909;BMP280;44690;48.154;17.102;2023-02-28T12:38:14;100618.16;;;5.52
58909;BMP280;44690;48.154;17.102;2023-02-28T12:39:53;100624.50;;;5.55
58909;BMP280;44690;48.154;17.102;2023-02-28T12:42:26;100622.53;;;5.61
58909;BMP280;44690;48.154;17.102;2023-02-28T12:44:35;100618.38;;;5.60
58909;BMP280;44690;48.154;17.102;2023-02-28T12:46:38;100620.31;;;5.65
58909;BMP280;44690;48.154;17.102;2023-02-28T12:48:58;100612.72;;;5.63
58909;BMP280;44690;48.154;17.102;2023-02-28T12:50:35;100617.63;;;5.65
58909;BMP280;44690;48.154;17.102;2023-02-28T12:52:41;100624.69;;;5.68
58909;BMP280;44690;48.154;17.102;2023-02-28T12:55:19;100616.91;;;5.59
58909;BMP280;44690;48.154;17.102;2023-02-28T12:57:15;100610.06;;;5.52
58909;BMP280;44690;48.154;17.102;2023-02-28T13:09:44;100599.31;;;5.52
58909;BMP280;44690;48.154;17.102;2023-02-28T13:11:51;100591.97;;;5.53
58909;BMP280;44690;48.154;17.102;2023-02-28T13:13:37;100598.06;;;5.59
58909;BMP280;44690;48.154;17.102;2023-02-28T13:15:33;100602.72;;;5.53
58909;BMP280;44690;48.154;17.102;2023-02-28T13:17:40;100602.25;;;5.49
58909;BMP280;44690;48.154;17.102;2023-02-28T13:20:29;100597.09;;;5.51
58909;BMP280;44690;48.154;17.102;2023-02-28T13:24:10;100592.69;;;5.59
58909;BMP280;44690;48.154;17.102;2023-02-28T13:31:09;100588.00;;;5.65
58909;BMP280;44690;48.154;17.102;2023-02-28T13:35:43;100577.50;;;5.56
58909;BMP280;44690;48.154;17.102;2023-02-28T13:37:41;100585.31;;;5.65
58909;BMP280;44690;48.154;17.102;2023-02-28T13:40:22;100594.88;;;5.60
58909;BMP280;44690;48.154;17.102;2023-02-28T13:44:30;100578.97;;;5.51
58909;BMP280;44690;48.154;17.102;2023-02-28T13:46:28;100569.94;;;5.49
58909;BMP280;44690;48.154;17.102;2023-02-28T13:48:02;100576.78;;;5.50
58909;BMP280;44690;48.154;17.102;2023-02-28T13:49:37;100577.78;;;5.52
58909;BMP280;44690;48.154;17.102;2023-02-28T13:51:44;100576.03;;;5.55
58909;BMP280;44690;48.154;17.102;2023-02-28T14:00:33;100579.66;;;5.63
58909;BMP280;44690;48.154;17.102;2023-02-28T14:06:56;100584.81;;;5.61
58909;BMP280;44690;48.154;17.102;2023-02-28T14:09:35;100581.91;;;5.59
58909;BMP280;44690;48.154;17.102;2023-02-28T14:11:48;100572.84;;;5.51
58909;BMP280;44690;48.154;17.102;2023-02-28T14:14:07;100583.41;;;5.49
58909;BMP280;44690;48.154;17.102;2023-02-28T14:16:09;100584.34;;;5.51
58909;BMP280;44690;48.154;17.102;2023-02-28T14:17:58;100570.72;;;5.43
58909;BMP280;44690;48.154;17.102;2023-02-28T14:20:15;100582.41;;;5.46